Weather at Alexandria International Airport

Public forecast

Using degrees Fahrenheit for public forecast. Weather courtesy of forecast.io.

Current aviation weather report (METAR) for Alexandria International Airport

Retrieved 2021/01/25 21:44 UTC (5 minutes ago):

KAEX 252144Z 21007KT 8SM BKN014 BKN031 OVC060 22/21 A2968 RMK AO2 T02170206

Aviation forecast (TAF) for Alexandria International Airport

Retrieved 2021/01/25 18:40 UTC (3 hours ago):

TAF KAEX 251738Z 2518/2618 18012G20KT P6SM -SHRA VCTS OVC015CB FM252300 23010KT P6SM -SHRA OVC025 FM260500 26005KT P6SM BKN050 FM260800 VRB03KT 4SM BR SCT200 FM261500 VRB05KT P6SM SCT250